sensor_id;sensor_type;location;lat;lon;timestamp;pressure;altitude;pressure_sealevel;temperature;humidity
57572;BME280;44459;43.522;24.470;2023-11-21T00:02:12;99992.34;;;4.75;100.00
57572;BME280;44459;43.522;24.470;2023-11-21T00:04:38;99989.66;;;4.72;100.00
57572;BME280;44459;43.522;24.470;2023-11-21T00:07:03;99989.63;;;4.70;100.00
57572;BME280;44459;43.522;24.470;2023-11-21T00:09:29;99987.06;;;4.72;100.00
57572;BME280;44459;43.522;24.470;2023-11-21T00:11:54;99988.88;;;4.76;100.00
57572;BME280;44459;43.522;24.470;2023-11-21T00:14:19;99990.53;;;4.72;100.00
57572;BME280;44459;43.522;24.470;2023-11-21T00:16:45;99998.22;;;4.66;100.00
57572;BME280;44459;43.522;24.470;2023-11-21T00:19:11;99995.25;;;4.52;99.75
57572;BME280;44459;43.522;24.470;2023-11-21T00:21:37;100001.91;;;4.41;100.00
57572;BME280;44459;43.522;24.470;2023-11-21T00:24:03;99999.38;;;4.43;100.00
57572;BME280;44459;43.522;24.470;2023-11-21T00:26:28;100001.13;;;4.44;100.00
57572;BME280;44459;43.522;24.470;2023-11-21T00:28:56;99997.63;;;4.43;100.00
57572;BME280;44459;43.522;24.470;2023-11-21T00:31:21;100004.91;;;4.55;100.00
57572;BME280;44459;43.522;24.470;2023-11-21T00:33:47;100001.66;;;4.65;100.00
57572;BME280;44459;43.522;24.470;2023-11-21T00:36:13;99995.06;;;4.79;100.00
57572;BME280;44459;43.522;24.470;2023-11-21T00:38:38;100003.09;;;4.85;100.00
57572;BME280;44459;43.522;24.470;2023-11-21T00:41:05;99996.38;;;4.96;100.00
57572;BME280;44459;43.522;24.470;2023-11-21T00:43:31;99990.28;;;4.97;100.00
57572;BME280;44459;43.522;24.470;2023-11-21T00:45:59;99998.25;;;5.02;100.00
57572;BME280;44459;43.522;24.470;2023-11-21T00:48:24;99991.44;;;5.08;100.00
57572;BME280;44459;43.522;24.470;2023-11-21T00:50:49;99994.13;;;5.12;100.00
57572;BME280;44459;43.522;24.470;2023-11-21T00:53:15;100000.31;;;5.15;100.00
57572;BME280;44459;43.522;24.470;2023-11-21T00:55:41;100004.72;;;5.18;100.00
57572;BME280;44459;43.522;24.470;2023-11-21T00:58:06;100000.38;;;5.18;100.00
57572;BME280;44459;43.522;24.470;2023-11-21T01:00:33;100008.94;;;5.11;100.00
57572;BME280;44459;43.522;24.470;2023-11-21T01:02:59;100008.03;;;5.11;100.00
57572;BME280;44459;43.522;24.470;2023-11-21T01:05:24;99988.97;;;5.15;100.00
57572;BME280;44459;43.522;24.470;2023-11-21T01:07:50;99994.81;;;5.04;100.00
57572;BME280;44459;43.522;24.470;2023-11-21T01:10:15;99995.59;;;5.00;100.00
57572;BME280;44459;43.522;24.470;2023-11-21T01:12:42;99992.97;;;4.99;100.00
57572;BME280;44459;43.522;24.470;2023-11-21T01:15:08;99994.75;;;5.01;100.00
57572;BME280;44459;43.522;24.470;2023-11-21T01:17:34;99988.63;;;4.99;100.00
57572;BME280;44459;43.522;24.470;2023-11-21T01:20:00;99983.53;;;5.05;100.00
57572;BME280;44459;43.522;24.470;2023-11-21T01:22:26;99986.09;;;5.04;100.00
57572;BME280;44459;43.522;24.470;2023-11-21T01:24:54;99990.41;;;5.02;100.00
57572;BME280;44459;43.522;24.470;2023-11-21T01:27:21;99987.81;;;5.02;100.00
57572;BME280;44459;43.522;24.470;2023-11-21T01:29:46;99969.44;;;4.99;100.00
57572;BME280;44459;43.522;24.470;2023-11-21T01:32:11;99984.16;;;4.95;100.00
57572;BME280;44459;43.522;24.470;2023-11-21T01:34:37;99969.09;;;4.85;99.94
57572;BME280;44459;43.522;24.470;2023-11-21T01:37:03;99970.75;;;4.82;99.83
57572;BME280;44459;43.522;24.470;2023-11-21T01:39:30;99958.44;;;4.78;100.00
57572;BME280;44459;43.522;24.470;2023-11-21T01:41:57;99959.22;;;4.74;100.00
57572;BME280;44459;43.522;24.470;2023-11-21T01:44:24;99946.91;;;4.70;100.00
57572;BME280;44459;43.522;24.470;2023-11-21T01:46:50;99961.69;;;4.69;100.00
57572;BME280;44459;43.522;24.470;2023-11-21T01:49:16;99965.06;;;4.65;100.00
57572;BME280;44459;43.522;24.470;2023-11-21T01:51:46;99963.19;;;4.60;100.00
57572;BME280;44459;43.522;24.470;2023-11-21T01:54:12;99951.75;;;4.54;100.00
57572;BME280;44459;43.522;24.470;2023-11-21T01:56:38;99959.56;;;4.53;100.00
57572;BME280;44459;43.522;24.470;2023-11-21T01:59:04;99957.56;;;4.43;100.00
57572;BME280;44459;43.522;24.470;2023-11-21T02:01:33;99955.69;;;4.39;100.00
57572;BME280;44459;43.522;24.470;2023-11-21T02:03:58;99962.63;;;4.37;100.00
57572;BME280;44459;43.522;24.470;2023-11-21T02:06:23;99960.94;;;4.39;100.00
57572;BME280;44459;43.522;24.470;2023-11-21T02:08:49;99957.56;;;4.43;100.00
57572;BME280;44459;43.522;24.470;2023-11-21T02:11:15;99965.53;;;4.47;100.00
57572;BME280;44459;43.522;24.470;2023-11-21T02:13:41;99957.00;;;4.54;100.00
57572;BME280;44459;43.522;24.470;2023-11-21T02:16:10;99958.88;;;4.60;100.00
57572;BME280;44459;43.522;24.470;2023-11-21T02:18:38;99952.72;;;4.58;100.00
57572;BME280;44459;43.522;24.470;2023-11-21T02:21:04;99954.41;;;4.56;100.00
57572;BME280;44459;43.522;24.470;2023-11-21T02:23:30;99952.88;;;4.66;100.00
57572;BME280;44459;43.522;24.470;2023-11-21T02:25:56;99957.50;;;4.76;100.00
57572;BME280;44459;43.522;24.470;2023-11-21T02:28:21;99959.41;;;4.83;100.00
57572;BME280;44459;43.522;24.470;2023-11-21T02:30:53;99962.09;;;4.84;100.00
57572;BME280;44459;43.522;24.470;2023-11-21T02:33:24;99961.25;;;4.85;100.00
57572;BME280;44459;43.522;24.470;2023-11-21T02:35:49;99946.47;;;4.87;100.00
57572;BME280;44459;43.522;24.470;2023-11-21T02:38:23;99954.50;;;4.95;100.00
57572;BME280;44459;43.522;24.470;2023-11-21T02:40:48;99965.22;;;5.05;100.00
57572;BME280;44459;43.522;24.470;2023-11-21T02:43:14;99957.50;;;5.12;100.00
57572;BME280;44459;43.522;24.470;2023-11-21T02:45:39;99952.34;;;5.15;100.00
57572;BME280;44459;43.522;24.470;2023-11-21T02:48:07;99959.28;;;5.13;100.00
57572;BME280;44459;43.522;24.470;2023-11-21T02:50:32;99964.50;;;5.13;100.00
57572;BME280;44459;43.522;24.470;2023-11-21T02:52:58;99953.94;;;5.08;100.00
57572;BME280;44459;43.522;24.470;2023-11-21T02:55:26;99957.50;;;5.10;100.00
57572;BME280;44459;43.522;24.470;2023-11-21T02:57:52;99950.50;;;5.11;100.00
57572;BME280;44459;43.522;24.470;2023-11-21T03:00:17;99953.03;;;5.07;100.00
57572;BME280;44459;43.522;24.470;2023-11-21T03:02:43;99944.41;;;5.10;100.00
57572;BME280;44459;43.522;24.470;2023-11-21T03:05:08;99948.69;;;5.06;100.00
57572;BME280;44459;43.522;24.470;2023-11-21T03:07:34;99947.69;;;5.01;100.00
57572;BME280;44459;43.522;24.470;2023-11-21T03:10:00;99949.22;;;4.93;100.00
57572;BME280;44459;43.522;24.470;2023-11-21T03:12:26;99943.84;;;4.86;100.00
57572;BME280;44459;43.522;24.470;2023-11-21T03:14:51;99941.03;;;4.78;100.00
57572;BME280;44459;43.522;24.470;2023-11-21T03:17:17;99942.69;;;4.76;100.00
57572;BME280;44459;43.522;24.470;2023-11-21T03:19:42;99940.84;;;4.72;100.00
57572;BME280;44459;43.522;24.470;2023-11-21T03:22:07;99946.78;;;4.65;100.00
57572;BME280;44459;43.522;24.470;2023-11-21T03:24:34;99939.72;;;4.61;100.00
57572;BME280;44459;43.522;24.470;2023-11-21T03:26:59;99935.97;;;4.51;100.00
57572;BME280;44459;43.522;24.470;2023-11-21T03:29:25;99936.72;;;4.46;100.00
57572;BME280;44459;43.522;24.470;2023-11-21T03:31:50;99941.03;;;4.44;100.00
57572;BME280;44459;43.522;24.470;2023-11-21T03:34:25;99936.50;;;4.37;100.00
57572;BME280;44459;43.522;24.470;2023-11-21T03:36:53;99933.69;;;4.31;100.00
57572;BME280;44459;43.522;24.470;2023-11-21T03:39:20;99935.31;;;4.26;100.00
57572;BME280;44459;43.522;24.470;2023-11-21T03:41:46;99936.00;;;4.19;100.00
57572;BME280;44459;43.522;24.470;2023-11-21T03:44:12;99936.72;;;4.13;100.00
57572;BME280;44459;43.522;24.470;2023-11-21T03:46:38;99937.44;;;4.07;100.00
57572;BME280;44459;43.522;24.470;2023-11-21T03:49:03;99929.59;;;4.06;100.00
57572;BME280;44459;43.522;24.470;2023-11-21T03:51:29;99938.19;;;4.02;100.00
57572;BME280;44459;43.522;24.470;2023-11-21T03:53:54;99945.13;;;4.01;100.00
57572;BME280;44459;43.522;24.470;2023-11-21T03:56:20;99946.09;;;4.05;100.00
57572;BME280;44459;43.522;24.470;2023-11-21T03:58:48;99943.56;;;4.10;100.00
57572;BME280;44459;43.522;24.470;2023-11-21T04:01:24;99947.94;;;4.09;100.00
57572;BME280;44459;43.522;24.470;2023-11-21T04:03:51;99943.72;;;4.14;100.00
57572;BME280;44459;43.522;24.470;2023-11-21T04:06:17;99941.19;;;4.17;100.00
57572;BME280;44459;43.522;24.470;2023-11-21T04:08:45;99941.19;;;4.17;100.00
57572;BME280;44459;43.522;24.470;2023-11-21T04:11:11;99943.78;;;4.17;100.00
57572;BME280;44459;43.522;24.470;2023-11-21T04:13:38;99946.38;;;4.16;100.00
57572;BME280;44459;43.522;24.470;2023-11-21T04:16:05;99949.59;;;4.05;100.00
57572;BME280;44459;43.522;24.470;2023-11-21T04:18:31;99950.19;;;3.95;100.00
57572;BME280;44459;43.522;24.470;2023-11-21T04:20:56;99953.66;;;3.96;100.00
57572;BME280;44459;43.522;24.470;2023-11-21T04:23:22;99955.50;;;3.98;100.00
57572;BME280;44459;43.522;24.470;2023-11-21T04:25:47;99952.13;;;4.02;100.00
57572;BME280;44459;43.522;24.470;2023-11-21T04:28:13;99951.25;;;4.03;100.00
57572;BME280;44459;43.522;24.470;2023-11-21T04:30:38;99952.19;;;4.05;100.00
57572;BME280;44459;43.522;24.470;2023-11-21T04:33:04;99952.19;;;4.05;100.00
57572;BME280;44459;43.522;24.470;2023-11-21T04:35:30;99954.84;;;4.07;100.00
57572;BME280;44459;43.522;24.470;2023-11-21T04:37:55;99955.66;;;4.04;100.00
57572;BME280;44459;43.522;24.470;2023-11-21T04:40:22;99963.47;;;4.04;100.00
57572;BME280;44459;43.522;24.470;2023-11-21T04:42:48;99963.56;;;4.07;100.00
57572;BME280;44459;43.522;24.470;2023-11-21T04:45:13;99966.38;;;4.15;100.00
57572;BME280;44459;43.522;24.470;2023-11-21T04:47:39;99967.38;;;4.20;100.00
57572;BME280;44459;43.522;24.470;2023-11-21T04:50:05;99962.13;;;4.19;100.00
57572;BME280;44459;43.522;24.470;2023-11-21T04:52:31;99957.88;;;4.22;100.00
57572;BME280;44459;43.522;24.470;2023-11-21T04:54:57;99964.94;;;4.26;100.00
57572;BME280;44459;43.522;24.470;2023-11-21T04:57:24;99968.53;;;4.30;100.00
57572;BME280;44459;43.522;24.470;2023-11-21T04:59:49;99970.28;;;4.31;100.00
57572;BME280;44459;43.522;24.470;2023-11-21T05:02:16;99966.97;;;4.38;100.00
57572;BME280;44459;43.522;24.470;2023-11-21T05:04:41;99974.03;;;4.40;100.00
57572;BME280;44459;43.522;24.470;2023-11-21T05:07:08;99963.63;;;4.42;100.00
57572;BME280;44459;43.522;24.470;2023-11-21T05:09:34;99954.00;;;4.41;100.00
57572;BME280;44459;43.522;24.470;2023-11-21T05:12:01;99962.84;;;4.46;100.00
57572;BME280;44459;43.522;24.470;2023-11-21T05:14:27;99972.53;;;4.50;100.00
57572;BME280;44459;43.522;24.470;2023-11-21T05:16:52;99959.56;;;4.53;100.00
57572;BME280;44459;43.522;24.470;2023-11-21T05:19:17;99961.41;;;4.57;100.00
57572;BME280;44459;43.522;24.470;2023-11-21T05:21:43;99967.41;;;4.53;100.00
57572;BME280;44459;43.522;24.470;2023-11-21T05:24:08;99970.13;;;4.57;100.00
57572;BME280;44459;43.522;24.470;2023-11-21T05:26:34;99968.50;;;4.63;100.00
57572;BME280;44459;43.522;24.470;2023-11-21T05:29:00;99968.63;;;4.67;100.00
57572;BME280;44459;43.522;24.470;2023-11-21T05:31:25;99978.25;;;4.68;100.00
57572;BME280;44459;43.522;24.470;2023-11-21T05:33:52;99976.59;;;4.72;100.00
57572;BME280;44459;43.522;24.470;2023-11-21T05:36:18;99979.16;;;4.70;100.00
57572;BME280;44459;43.522;24.470;2023-11-21T05:38:43;99978.41;;;4.74;100.00
57572;BME280;44459;43.522;24.470;2023-11-21T05:41:09;99972.41;;;4.78;100.00
57572;BME280;44459;43.522;24.470;2023-11-21T05:43:38;99967.25;;;4.81;100.00
57572;BME280;44459;43.522;24.470;2023-11-21T05:46:04;99969.94;;;4.84;100.00
57572;BME280;44459;43.522;24.470;2023-11-21T05:48:29;99973.50;;;4.88;100.00
57572;BME280;44459;43.522;24.470;2023-11-21T05:50:55;99981.50;;;4.94;100.00
57572;BME280;44459;43.522;24.470;2023-11-21T05:53:20;99967.53;;;4.93;100.00
57572;BME280;44459;43.522;24.470;2023-11-21T05:55:47;99963.31;;;5.00;100.00
57572;BME280;44459;43.522;24.470;2023-11-21T05:58:13;99969.50;;;5.03;100.00
57572;BME280;44459;43.522;24.470;2023-11-21T06:00:38;99977.53;;;5.11;100.00
57572;BME280;44459;43.522;24.470;2023-11-21T06:03:04;99973.25;;;5.15;100.00
57572;BME280;44459;43.522;24.470;2023-11-21T06:05:32;99982.06;;;5.17;100.00
57572;BME280;44459;43.522;24.470;2023-11-21T06:07:58;99983.97;;;5.24;100.00
57572;BME280;44459;43.522;24.470;2023-11-21T06:10:24;99986.59;;;5.24;100.00
57572;BME280;44459;43.522;24.470;2023-11-21T06:12:50;99985.81;;;5.29;100.00
57572;BME280;44459;43.522;24.470;2023-11-21T06:15:16;99991.19;;;5.34;100.00
57572;BME280;44459;43.522;24.470;2023-11-21T06:17:44;99979.94;;;5.39;100.00
57572;BME280;44459;43.522;24.470;2023-11-21T06:20:10;99984.41;;;5.43;100.00
57572;BME280;44459;43.522;24.470;2023-11-21T06:22:40;99986.25;;;5.49;100.00
57572;BME280;44459;43.522;24.470;2023-11-21T06:25:07;99990.72;;;5.53;100.00
57572;BME280;44459;43.522;24.470;2023-11-21T06:27:39;99984.72;;;5.57;100.00
57572;BME280;44459;43.522;24.470;2023-11-21T06:30:06;99983.09;;;5.64;100.00
57572;BME280;44459;43.522;24.470;2023-11-21T06:32:35;99978.81;;;5.67;100.00
57572;BME280;44459;43.522;24.470;2023-11-21T06:35:01;99984.09;;;5.69;100.00
57572;BME280;44459;43.522;24.470;2023-11-21T06:37:28;99972.81;;;5.73;100.00
57572;BME280;44459;43.522;24.470;2023-11-21T06:39:54;99977.31;;;5.80;100.00
57572;BME280;44459;43.522;24.470;2023-11-21T06:42:20;99980.06;;;5.84;100.00
57572;BME280;44459;43.522;24.470;2023-11-21T06:44:46;99977.56;;;5.89;100.00
57572;BME280;44459;43.522;24.470;2023-11-21T06:47:12;99972.44;;;5.95;100.00
57572;BME280;44459;43.522;24.470;2023-11-21T06:49:37;99971.72;;;6.02;100.00
57572;BME280;44459;43.522;24.470;2023-11-21T06:52:04;99974.50;;;6.10;100.00
57572;BME280;44459;43.522;24.470;2023-11-21T06:54:30;99979.03;;;6.18;100.00
57572;BME280;44459;43.522;24.470;2023-11-21T06:56:56;99969.47;;;6.22;100.00
57572;BME280;44459;43.522;24.470;2023-11-21T06:59:22;99965.22;;;6.27;100.00
57572;BME280;44459;43.522;24.470;2023-11-21T07:01:47;99969.56;;;6.25;100.00
57572;BME280;44459;43.522;24.470;2023-11-21T07:04:13;99968.72;;;6.27;100.00
57572;BME280;44459;43.522;24.470;2023-11-21T07:06:38;99961.81;;;6.31;100.00
57572;BME280;44459;43.522;24.470;2023-11-21T07:09:03;99963.59;;;6.33;100.00
57572;BME280;44459;43.522;24.470;2023-11-21T07:11:29;99954.94;;;6.37;100.00
57572;BME280;44459;43.522;24.470;2023-11-21T07:13:54;99957.59;;;6.40;100.00
57572;BME280;44459;43.522;24.470;2023-11-21T07:16:20;99951.66;;;6.49;100.00
57572;BME280;44459;43.522;24.470;2023-11-21T07:18:46;99960.53;;;6.57;100.00
57572;BME280;44459;43.522;24.470;2023-11-21T07:21:11;99966.81;;;6.67;100.00
57572;BME280;44459;43.522;24.470;2023-11-21T07:23:41;99973.97;;;6.75;100.00
57572;BME280;44459;43.522;24.470;2023-11-21T07:26:06;99975.78;;;6.79;100.00
57572;BME280;44459;43.522;24.470;2023-11-21T07:28:35;99966.31;;;6.89;99.32
57572;BME280;44459;43.522;24.470;2023-11-21T07:31:01;99970.00;;;7.01;98.19
57572;BME280;44459;43.522;24.470;2023-11-21T07:33:26;99960.44;;;7.05;96.89
57572;BME280;44459;43.522;24.470;2023-11-21T07:35:52;99963.28;;;7.17;96.99
57572;BME280;44459;43.522;24.470;2023-11-21T07:38:17;99959.97;;;7.29;94.77
57572;BME280;44459;43.522;24.470;2023-11-21T07:40:43;99971.44;;;7.37;95.66
57572;BME280;44459;43.522;24.470;2023-11-21T07:43:08;99968.06;;;7.45;97.09
57572;BME280;44459;43.522;24.470;2023-11-21T07:45:35;99964.63;;;7.51;96.79
57572;BME280;44459;43.522;24.470;2023-11-21T07:48:01;99960.34;;;7.57;96.63
57572;BME280;44459;43.522;24.470;2023-11-21T07:50:28;99966.59;;;7.67;96.72
57572;BME280;44459;43.522;24.470;2023-11-21T07:52:54;99965.88;;;7.77;96.79
57572;BME280;44459;43.522;24.470;2023-11-21T07:55:20;99969.53;;;7.91;97.31
57572;BME280;44459;43.522;24.470;2023-11-21T07:57:45;99966.19;;;8.01;96.38
57572;BME280;44459;43.522;24.470;2023-11-21T08:00:11;99975.84;;;8.05;94.94
57572;BME280;44459;43.522;24.470;2023-11-21T08:02:38;99973.38;;;8.19;93.16
57572;BME280;44459;43.522;24.470;2023-11-21T08:05:05;99978.69;;;8.24;92.80
57572;BME280;44459;43.522;24.470;2023-11-21T08:07:32;99972.72;;;8.35;92.62
57572;BME280;44459;43.522;24.470;2023-11-21T08:09:57;99969.31;;;8.44;91.71
57572;BME280;44459;43.522;24.470;2023-11-21T08:12:23;99972.94;;;8.55;92.25
57572;BME280;44459;43.522;24.470;2023-11-21T08:14:49;99968.63;;;8.65;91.70
57572;BME280;44459;43.522;24.470;2023-11-21T08:17:14;99959.94;;;8.72;90.89
57572;BME280;44459;43.522;24.470;2023-11-21T08:19:40;99961.81;;;8.86;90.81
57572;BME280;44459;43.522;24.470;2023-11-21T08:22:06;99955.78;;;8.99;91.46
57572;BME280;44459;43.522;24.470;2023-11-21T08:24:33;99951.47;;;9.10;90.97
57572;BME280;44459;43.522;24.470;2023-11-21T08:26:58;99948.03;;;9.18;90.31
57572;BME280;44459;43.522;24.470;2023-11-21T08:29:24;99951.59;;;9.27;91.48
57572;BME280;44459;43.522;24.470;2023-11-21T08:31:49;99953.47;;;9.48;89.26
57572;BME280;44459;43.522;24.470;2023-11-21T08:34:15;99954.44;;;9.65;87.04
57572;BME280;44459;43.522;24.470;2023-11-21T08:36:43;99957.19;;;9.85;85.78
57572;BME280;44459;43.522;24.470;2023-11-21T08:39:09;99955.50;;;10.03;83.64
57572;BME280;44459;43.522;24.470;2023-11-21T08:41:35;99950.31;;;10.22;83.58
57572;BME280;44459;43.522;24.470;2023-11-21T08:44:02;99951.28;;;10.43;83.95
57572;BME280;44459;43.522;24.470;2023-11-21T08:46:32;99942.50;;;10.61;82.30
57572;BME280;44459;43.522;24.470;2023-11-21T08:49:00;99943.38;;;10.80;82.28
57572;BME280;44459;43.522;24.470;2023-11-21T08:51:25;99935.47;;;10.92;80.72
57572;BME280;44459;43.522;24.470;2023-11-21T08:53:51;99927.53;;;11.02;79.12
57572;BME280;44459;43.522;24.470;2023-11-21T08:56:16;99926.66;;;11.09;79.86
57572;BME280;44459;43.522;24.470;2023-11-21T08:58:43;99929.28;;;11.20;78.53
57572;BME280;44459;43.522;24.470;2023-11-21T09:01:09;99924.88;;;11.30;78.30
57572;BME280;44459;43.522;24.470;2023-11-21T09:03:34;99920.47;;;11.38;77.03
57572;BME280;44459;43.522;24.470;2023-11-21T09:06:00;99920.41;;;11.51;79.99
57572;BME280;44459;43.522;24.470;2023-11-21T09:08:26;99913.34;;;11.61;78.05
57572;BME280;44459;43.522;24.470;2023-11-21T09:10:53;99905.38;;;11.64;77.26
57572;BME280;44459;43.522;24.470;2023-11-21T09:13:19;99901.84;;;11.70;74.75
57572;BME280;44459;43.522;24.470;2023-11-21T09:15:44;99899.19;;;11.80;75.33
57572;BME280;44459;43.522;24.470;2023-11-21T09:18:13;99897.34;;;11.96;75.84
57572;BME280;44459;43.522;24.470;2023-11-21T09:20:38;99896.47;;;12.00;76.94
57572;BME280;44459;43.522;24.470;2023-11-21T09:23:04;99892.03;;;12.03;75.90
57572;BME280;44459;43.522;24.470;2023-11-21T09:25:29;99889.34;;;12.09;75.77
57572;BME280;44459;43.522;24.470;2023-11-21T09:27:55;99878.75;;;12.11;74.21
57572;BME280;44459;43.522;24.470;2023-11-21T09:30:22;99874.31;;;12.11;75.44
57572;BME280;44459;43.522;24.470;2023-11-21T09:32:50;99877.91;;;12.07;77.89
57572;BME280;44459;43.522;24.470;2023-11-21T09:35:15;99875.16;;;12.21;75.54
57572;BME280;44459;43.522;24.470;2023-11-21T09:37:45;99871.53;;;12.33;74.31
57572;BME280;44459;43.522;24.470;2023-11-21T09:40:11;99864.44;;;12.39;75.36
57572;BME280;44459;43.522;24.470;2023-11-21T09:42:57;99864.31;;;12.53;74.23
57572;BME280;44459;43.522;24.470;2023-11-21T09:45:32;99857.25;;;12.59;72.62
57572;BME280;44459;43.522;24.470;2023-11-21T09:48:00;99852.66;;;12.78;74.23
57572;BME280;44459;43.522;24.470;2023-11-21T09:50:26;99842.81;;;12.92;73.56
57572;BME280;44459;43.522;24.470;2023-11-21T09:52:58;99841.78;;;13.05;70.15
57572;BME280;44459;43.522;24.470;2023-11-21T09:55:27;99839.94;;;13.17;70.19
57572;BME280;44459;43.522;24.470;2023-11-21T09:58:02;99832.75;;;13.28;68.24
57572;BME280;44459;43.522;24.470;2023-11-21T10:00:29;99822.91;;;13.39;68.06
57572;BME280;44459;43.522;24.470;2023-11-21T10:02:58;99820.19;;;13.45;67.55
57572;BME280;44459;43.522;24.470;2023-11-21T10:05:25;99815.72;;;13.47;67.33
57572;BME280;44459;43.522;24.470;2023-11-21T10:07:50;99814.69;;;13.60;67.61
57572;BME280;44459;43.522;24.470;2023-11-21T10:10:18;99803.81;;;13.81;67.28
57572;BME280;44459;43.522;24.470;2023-11-21T10:12:49;99794.66;;;14.00;68.60
57572;BME280;44459;43.522;24.470;2023-11-21T10:15:16;99795.44;;;14.08;67.88
57572;BME280;44459;43.522;24.470;2023-11-21T10:17:44;99791.69;;;14.20;68.54
57572;BME280;44459;43.522;24.470;2023-11-21T10:20:13;99786.13;;;14.38;67.02
57572;BME280;44459;43.522;24.470;2023-11-21T10:22:42;99780.63;;;14.50;66.26
57572;BME280;44459;43.522;24.470;2023-11-21T10:25:11;99780.47;;;14.58;66.38
57572;BME280;44459;43.522;24.470;2023-11-21T10:27:40;99774.13;;;14.68;65.22
57572;BME280;44459;43.522;24.470;2023-11-21T10:30:06;99763.38;;;14.74;62.66
57572;BME280;44459;43.522;24.470;2023-11-21T10:32:39;99765.09;;;14.77;62.03
57572;BME280;44459;43.522;24.470;2023-11-21T10:35:06;99751.59;;;14.87;59.82
57572;BME280;44459;43.522;24.470;2023-11-21T10:37:41;99751.53;;;14.92;60.14
57572;BME280;44459;43.522;24.470;2023-11-21T10:40:09;99743.50;;;14.93;60.06
57572;BME280;44459;43.522;24.470;2023-11-21T10:42:38;99738.06;;;14.99;59.19
57572;BME280;44459;43.522;24.470;2023-11-21T10:45:08;99729.94;;;15.07;59.64
57572;BME280;44459;43.522;24.470;2023-11-21T10:47:41;99725.50;;;15.07;59.55
57572;BME280;44459;43.522;24.470;2023-11-21T10:50:07;99719.22;;;15.11;60.31
57572;BME280;44459;43.522;24.470;2023-11-21T10:52:36;99706.72;;;15.15;61.25
57572;BME280;44459;43.522;24.470;2023-11-21T10:55:01;99708.28;;;15.25;58.46
57572;BME280;44459;43.522;24.470;2023-11-21T10:57:29;99709.09;;;15.30;59.18
57572;BME280;44459;43.522;24.470;2023-11-21T10:59:55;99705.25;;;15.42;58.77
57572;BME280;44459;43.522;24.470;2023-11-21T11:02:24;99705.16;;;15.48;59.40
57572;BME280;44459;43.522;24.470;2023-11-21T11:04:58;99698.00;;;15.51;59.44
57572;BME280;44459;43.522;24.470;2023-11-21T11:07:27;99685.47;;;15.56;59.32
57572;BME280;44459;43.522;24.470;2023-11-21T11:09:53;99683.53;;;15.63;57.87
57572;BME280;44459;43.522;24.470;2023-11-21T11:12:20;99671.91;;;15.67;59.27
57572;BME280;44459;43.522;24.470;2023-11-21T11:14:45;99674.56;;;15.67;59.04
57572;BME280;44459;43.522;24.470;2023-11-21T11:17:11;99661.00;;;15.78;57.79
57572;BME280;44459;43.522;24.470;2023-11-21T11:19:38;99663.50;;;15.84;58.47
57572;BME280;44459;43.522;24.470;2023-11-21T11:33:09;99640.88;;;16.03;56.74
57572;BME280;44459;43.522;24.470;2023-11-21T11:35:55;99637.25;;;16.05;55.86
57572;BME280;44459;43.522;24.470;2023-11-21T11:38:22;99626.59;;;16.05;55.38
57572;BME280;44459;43.522;24.470;2023-11-21T11:40:53;99631.81;;;16.10;55.70
57572;BME280;44459;43.522;24.470;2023-11-21T11:43:27;99625.53;;;16.13;55.23
57572;BME280;44459;43.522;24.470;2023-11-21T11:45:57;99622.50;;;16.25;54.21
57572;BME280;44459;43.522;24.470;2023-11-21T11:48:24;99614.47;;;16.28;53.68
57572;BME280;44459;43.522;24.470;2023-11-21T11:51:12;99614.13;;;16.40;52.77
57572;BME280;44459;43.522;24.470;2023-11-21T11:53:44;99612.28;;;16.42;52.62
57572;BME280;44459;43.522;24.470;2023-11-21T11:59:00;99616.91;;;16.35;51.30
57572;BME280;44459;43.522;24.470;2023-11-21T12:01:28;99618.75;;;16.33;52.78
57572;BME280;44459;43.522;24.470;2023-11-21T12:06:51;99625.16;;;16.26;52.08
57572;BME280;44459;43.522;24.470;2023-11-21T12:09:26;99625.34;;;16.19;51.89
57572;BME280;44459;43.522;24.470;2023-11-21T12:11:53;99628.22;;;16.11;51.69
57572;BME280;44459;43.522;24.470;2023-11-21T12:14:18;99621.28;;;16.04;51.90
57572;BME280;44459;43.522;24.470;2023-11-21T12:16:44;99609.84;;;16.00;52.68
57572;BME280;44459;43.522;24.470;2023-11-21T12:19:11;99618.78;;;15.99;53.14
57572;BME280;44459;43.522;24.470;2023-11-21T12:21:37;99617.13;;;15.94;54.60
57572;BME280;44459;43.522;24.470;2023-11-21T12:24:03;99615.25;;;15.97;53.25
57572;BME280;44459;43.522;24.470;2023-11-21T12:26:29;99605.56;;;15.95;53.09
57572;BME280;44459;43.522;24.470;2023-11-21T12:28:54;99604.59;;;15.97;53.05
57572;BME280;44459;43.522;24.470;2023-11-21T12:31:23;99616.22;;;15.95;54.21
57572;BME280;44459;43.522;24.470;2023-11-21T12:33:49;99618.09;;;15.90;53.26
57572;BME280;44459;43.522;24.470;2023-11-21T12:36:15;99613.66;;;15.90;53.18
57572;BME280;44459;43.522;24.470;2023-11-21T12:38:41;99611.16;;;15.84;53.56
57572;BME280;44459;43.522;24.470;2023-11-21T12:41:07;99611.09;;;15.87;53.76
57572;BME280;44459;43.522;24.470;2023-11-21T12:43:33;99610.38;;;15.81;52.75
57572;BME280;44459;43.522;24.470;2023-11-21T12:46:11;99609.41;;;15.83;53.52
57572;BME280;44459;43.522;24.470;2023-11-21T12:48:43;99602.53;;;15.75;53.86
57572;BME280;44459;43.522;24.470;2023-11-21T12:51:10;99602.63;;;15.72;53.25
57572;BME280;44459;43.522;24.470;2023-11-21T12:53:37;99607.09;;;15.70;53.61
57572;BME280;44459;43.522;24.470;2023-11-21T12:56:13;99600.97;;;15.66;52.56
57572;BME280;44459;43.522;24.470;2023-11-21T12:58:39;99602.88;;;15.61;53.63
57572;BME280;44459;43.522;24.470;2023-11-21T13:01:07;99595.97;;;15.54;53.51
57572;BME280;44459;43.522;24.470;2023-11-21T13:03:40;99595.97;;;15.54;53.47
57572;BME280;44459;43.522;24.470;2023-11-21T13:06:06;99598.69;;;15.51;53.85